Time;durP1;ratioP1;P1;durP2;ratioP2;P2;SDS_P1;SDS_P2;PMS_P1;PMS_P2;Temp;Humidity;BMP_temperature;BMP_pressure;BME280_temperature;BME280_humidity;BME280_pressure;Samples;Min_cycle;Max_cycle;Signal;HPM_P1;HPM_P2
2022/04/25 00:02:12;;;;;;;12.40;5.53;;;8.90;99.90;;;;;;5035279;28;20033;-67
2022/04/25 00:04:38;;;;;;;11.67;5.50;;;8.80;99.90;;;;;;5016138;28;20040;-68
2022/04/25 00:07:04;;;;;;;14.00;5.80;;;8.90;99.90;;;;;;5038640;28;20037;-67
2022/04/25 00:09:29;;;;;;;14.13;5.32;;;8.90;99.90;;;;;;5038529;28;20052;-68
2022/04/25 00:11:55;;;;;;;10.90;5.40;;;8.90;99.90;;;;;;5016635;28;20124;-68
2022/04/25 00:14:21;;;;;;;15.17;6.30;;;8.90;99.90;;;;;;5033989;28;20041;-68
2022/04/25 00:16:46;;;;;;;12.90;5.00;;;8.90;99.90;;;;;;5017186;28;20055;-67
2022/04/25 00:19:12;;;;;;;14.93;5.37;;;8.90;99.90;;;;;;5021777;28;21730;-68
2022/04/25 00:21:38;;;;;;;9.17;5.27;;;8.90;99.90;;;;;;5037736;28;20064;-68
2022/04/25 00:24:04;;;;;;;10.53;5.70;;;8.90;99.90;;;;;;5009635;28;20459;-67
2022/04/25 00:26:29;;;;;;;12.50;5.38;;;8.90;99.90;;;;;;5032078;28;20845;-72
2022/04/25 00:28:55;;;;;;;17.57;5.67;;;8.90;99.90;;;;;;5038260;28;20109;-68
2022/04/25 00:31:21;;;;;;;11.07;5.37;;;8.90;99.90;;;;;;5035422;28;20090;-68
2022/04/25 00:33:46;;;;;;;12.10;4.87;;;8.90;99.90;;;;;;5024046;28;20103;-68
2022/04/25 00:36:12;;;;;;;12.40;5.73;;;8.90;99.90;;;;;;5002083;28;20492;-65
2022/04/25 00:38:37;;;;;;;13.43;5.30;;;8.90;99.90;;;;;;5035142;28;20786;-68
2022/04/25 00:41:06;;;;;;;13.60;5.73;;;8.80;99.90;;;;;;5020094;28;20040;-67
2022/04/25 00:43:32;;;;;;;10.90;5.63;;;8.80;99.90;;;;;;5007337;28;20307;-72
2022/04/25 00:45:57;;;;;;;12.37;5.37;;;8.80;99.90;;;;;;5018935;28;20496;-68
2022/04/25 00:48:26;;;;;;;9.87;5.30;;;8.80;99.90;;;;;;5042332;28;20487;-67
2022/04/25 00:50:51;;;;;;;12.57;5.35;;;8.80;99.90;;;;;;5034753;28;20404;-67
2022/04/25 00:53:17;;;;;;;9.53;5.33;;;8.80;99.90;;;;;;5026261;28;20053;-67
2022/04/25 00:55:43;;;;;;;14.27;6.00;;;8.80;99.90;;;;;;5026505;28;20527;-67
2022/04/25 00:58:11;;;;;;;16.42;6.05;;;8.70;99.90;;;;;;5043900;28;20048;-67
2022/04/25 01:00:37;;;;;;;16.35;5.63;;;8.70;99.90;;;;;;5031344;28;20086;-67
2022/04/25 01:03:03;;;;;;;9.07;6.00;;;8.70;99.90;;;;;;5043242;28;20037;-67
2022/04/25 01:05:29;;;;;;;12.90;5.97;;;8.80;99.90;;;;;;5039174;28;20077;-67
2022/04/25 01:07:54;;;;;;;16.97;6.23;;;8.80;99.90;;;;;;5022191;28;20100;-68
2022/04/25 01:10:20;;;;;;;16.73;6.57;;;8.70;99.90;;;;;;5045360;28;20071;-68
2022/04/25 01:12:46;;;;;;;11.60;6.00;;;8.80;99.90;;;;;;5039323;28;20094;-67
2022/04/25 01:15:12;;;;;;;11.87;5.53;;;8.80;99.90;;;;;;5040073;28;20498;-67
2022/04/25 01:17:38;;;;;;;;;;;8.80;99.90;;;;;;5003601;28;20033;-67
2022/04/25 01:20:08;;;;;;;12.38;5.93;;;8.80;99.90;;;;;;5032910;28;19925;-68
2022/04/25 01:22:46;;;;;;;14.70;6.00;;;8.80;99.90;;;;;;5042064;28;20047;-67
2022/04/25 01:27:56;;;;;;;12.50;6.00;;;8.80;99.90;;;;;;5024642;28;20148;-68
2022/04/25 01:30:22;;;;;;;13.53;5.53;;;8.70;99.90;;;;;;5025604;28;20437;-67
2022/04/25 01:32:48;;;;;;;10.57;5.90;;;8.80;99.90;;;;;;5037282;28;20048;-67
2022/04/25 01:35:14;;;;;;;11.02;5.90;;;8.80;99.90;;;;;;5016711;28;20072;-68
2022/04/25 01:37:46;;;;;;;12.93;6.37;;;8.80;99.90;;;;;;5039684;28;20052;-67
2022/04/25 01:40:12;;;;;;;10.82;5.60;;;8.80;99.90;;;;;;5042911;28;20045;-67
2022/04/25 01:42:37;;;;;;;9.90;5.65;;;8.80;99.90;;;;;;5035473;28;20117;-67
2022/04/25 01:45:04;;;;;;;12.67;5.87;;;8.80;99.90;;;;;;5039349;28;20252;-67
2022/04/25 01:47:32;;;;;;;13.30;6.28;;;8.80;99.90;;;;;;5041104;28;20051;-67
2022/04/25 01:49:57;;;;;;;14.23;5.40;;;8.80;99.90;;;;;;5040784;28;20045;-67
2022/04/25 01:52:31;;;;;;;8.90;5.35;;;8.80;99.90;;;;;;5017541;28;20041;-67
2022/04/25 01:54:58;;;;;;;16.42;6.63;;;8.70;99.90;;;;;;5025985;28;20041;-68
2022/04/25 01:57:25;;;;;;;12.57;5.28;;;8.70;99.90;;;;;;5040022;28;20045;-67
2022/04/25 01:59:51;;;;;;;12.65;5.75;;;8.70;99.90;;;;;;5031366;28;20045;-67
2022/04/25 02:02:18;;;;;;;14.45;6.38;;;8.70;99.90;;;;;;5021130;28;20051;-67
2022/04/25 02:04:43;;;;;;;12.63;5.90;;;8.70;99.90;;;;;;5036769;28;20080;-67
2022/04/25 02:07:10;;;;;;;11.77;5.20;;;8.60;99.90;;;;;;5039029;28;20407;-68
2022/04/25 02:09:37;;;;;;;12.68;6.25;;;8.60;99.90;;;;;;5034245;28;20043;-68
2022/04/25 02:12:04;;;;;;;11.88;5.43;;;8.50;99.90;;;;;;5042535;28;20045;-67
2022/04/25 02:14:35;;;;;;;10.27;5.25;;;8.50;99.90;;;;;;5080911;22;20121;-82
2022/04/25 02:17:01;;;;;;;11.00;5.88;;;8.50;99.90;;;;;;5032929;28;20052;-81
2022/04/25 02:19:27;;;;;;;13.83;5.57;;;8.40;99.90;;;;;;5053444;23;20571;-67
2022/04/25 02:21:53;;;;;;;14.18;5.20;;;8.40;99.90;;;;;;5069078;28;20044;-67
2022/04/25 02:24:19;;;;;;;9.45;5.60;;;8.30;99.90;;;;;;5060444;28;20465;-67
2022/04/25 02:26:45;;;;;;;13.35;5.40;;;8.30;99.90;;;;;;5062712;28;20454;-67
2022/04/25 02:29:10;;;;;;;14.13;5.60;;;8.30;99.90;;;;;;5055953;28;20068;-67
2022/04/25 02:31:36;;;;;;;11.23;5.10;;;8.20;99.90;;;;;;5062430;28;20040;-67
2022/04/25 02:34:01;;;;;;;12.57;4.87;;;8.20;99.90;;;;;;5059144;28;20037;-67
2022/04/25 02:36:27;;;;;;;8.90;4.57;;;8.20;99.90;;;;;;5024668;28;20436;-67
2022/04/25 02:38:53;;;;;;;14.23;5.33;;;8.10;99.90;;;;;;5038774;28;20083;-67
2022/04/25 02:41:18;;;;;;;12.40;5.10;;;8.10;99.90;;;;;;5054751;28;20412;-67
2022/04/25 02:43:44;;;;;;;10.17;4.53;;;8.00;99.90;;;;;;5061945;28;20036;-67
2022/04/25 02:46:12;;;;;;;10.82;4.60;;;8.00;99.90;;;;;;5057520;28;20052;-67
2022/04/25 02:48:39;;;;;;;10.40;5.10;;;8.00;99.90;;;;;;5044475;28;20051;-67
2022/04/25 02:51:05;;;;;;;;;;;7.90;99.90;;;;;;5060206;28;20036;-67
2022/04/25 02:53:32;;;;;;;11.05;5.05;;;7.90;99.90;;;;;;5047396;28;20292;-66
2022/04/25 02:55:58;;;;;;;10.85;5.25;;;7.90;99.90;;;;;;5050155;28;20395;-67
2022/04/25 02:58:25;;;;;;;8.73;4.80;;;7.90;99.90;;;;;;5060136;28;20037;-67
2022/04/25 03:00:52;;;;;;;11.80;5.28;;;7.80;99.90;;;;;;5053892;28;20446;-67
2022/04/25 03:03:18;;;;;;;;;;;7.90;99.90;;;;;;5060359;28;20097;-66
2022/04/25 03:05:46;;;;;;;11.48;4.78;;;7.80;99.90;;;;;;5053904;28;19928;-66
2022/04/25 03:08:17;;;;;;;13.32;5.60;;;7.80;99.90;;;;;;5051884;28;20037;-67
2022/04/25 03:10:43;;;;;;;15.20;5.45;;;7.80;99.90;;;;;;5056627;28;20044;-67
2022/04/25 03:13:11;;;;;;;13.43;5.68;;;7.80;99.90;;;;;;5053544;28;20029;-67
2022/04/25 03:15:38;;;;;;;10.00;5.70;;;7.70;99.90;;;;;;5062029;28;20124;-67
2022/04/25 03:18:05;;;;;;;19.15;5.85;;;7.70;99.90;;;;;;5059474;28;20167;-67
2022/04/25 03:20:31;;;;;;;;;;;7.70;99.90;;;;;;5053890;28;20685;-67
2022/04/25 03:22:58;;;;;;;10.70;5.45;;;7.60;99.90;;;;;;5058077;28;20446;-66
2022/04/25 03:25:24;;;;;;;9.98;5.38;;;7.60;99.90;;;;;;5048289;28;20076;-67
2022/04/25 03:27:50;;;;;;;14.25;5.28;;;7.60;99.90;;;;;;5048009;28;20036;-66
2022/04/25 03:30:16;;;;;;;12.35;5.80;;;7.60;99.90;;;;;;5054313;28;20041;-67
2022/04/25 03:32:45;;;;;;;11.05;5.45;;;7.60;99.90;;;;;;5053992;28;20044;-67
2022/04/25 03:35:13;;;;;;;9.48;5.00;;;7.60;99.90;;;;;;5056244;28;20068;-67
2022/04/25 03:37:38;;;;;;;10.57;6.00;;;7.60;99.90;;;;;;5056381;28;20048;-66
2022/04/25 03:40:05;;;;;;;10.50;5.80;;;7.60;99.90;;;;;;5037252;28;20469;-67
2022/04/25 03:42:31;;;;;;;9.95;5.65;;;7.60;99.90;;;;;;5059938;28;20082;-66
2022/04/25 03:44:56;;;;;;;9.07;5.45;;;7.60;99.90;;;;;;5051150;28;20037;-66
2022/04/25 03:47:23;;;;;;;13.77;5.20;;;7.60;99.90;;;;;;5037636;28;20405;-67
2022/04/25 03:49:51;;;;;;;12.50;5.63;;;7.70;99.90;;;;;;5054355;28;20045;-68
2022/04/25 03:52:17;;;;;;;16.70;5.53;;;7.70;99.90;;;;;;5052996;28;20033;-67
2022/04/25 03:57:27;;;;;;;10.18;5.82;;;7.80;99.90;;;;;;5052480;28;20040;-67
2022/04/25 03:59:53;;;;;;;12.25;5.18;;;7.80;99.90;;;;;;5057883;28;21109;-67
2022/04/25 04:02:19;;;;;;;12.97;4.57;;;7.90;99.90;;;;;;5061880;28;20040;-66
2022/04/25 04:04:44;;;;;;;8.80;4.97;;;7.90;99.90;;;;;;5054224;28;20490;-66
2022/04/25 04:07:13;;;;;;;9.33;5.27;;;7.90;99.90;;;;;;5056910;28;20039;-66
2022/04/25 04:09:47;;;;;;;11.50;5.10;;;8.00;99.90;;;;;;5034954;28;20048;-66
2022/04/25 04:12:14;;;;;;;13.32;6.28;;;8.00;99.90;;;;;;5037533;28;20211;-67
2022/04/25 04:14:40;;;;;;;11.73;5.18;;;8.00;99.90;;;;;;5058244;28;20036;-67
2022/04/25 04:17:07;;;;;;;11.93;5.18;;;8.10;99.90;;;;;;5051692;28;20028;-66
2022/04/25 04:19:36;;;;;;;13.45;5.28;;;8.10;99.90;;;;;;5055350;28;20159;-67
2022/04/25 04:22:03;;;;;;;10.15;5.43;;;8.10;99.90;;;;;;5053190;28;20051;-66
2022/04/25 04:24:31;;;;;;;8.75;4.88;;;8.10;99.90;;;;;;5030764;28;20033;-67
2022/04/25 04:27:02;;;;;;;14.20;5.80;;;8.20;99.90;;;;;;5060905;28;20053;-67
2022/04/25 04:29:31;;;;;;;10.45;5.40;;;8.20;99.90;;;;;;5061558;28;20193;-69
2022/04/25 04:32:02;;;;;;;11.32;6.00;;;8.20;99.90;;;;;;5051495;28;20386;-69
2022/04/25 04:34:28;;;;;;;12.38;5.40;;;8.20;99.90;;;;;;5058600;28;20420;-68
2022/04/25 04:36:54;;;;;;;12.40;6.22;;;8.30;99.90;;;;;;5051937;28;20529;-69
2022/04/25 04:39:20;;;;;;;10.65;5.38;;;8.30;99.90;;;;;;5039954;28;20036;-68
2022/04/25 04:41:46;;;;;;;12.07;5.78;;;8.30;99.90;;;;;;5056501;28;20041;-68
2022/04/25 04:44:12;;;;;;;15.15;5.57;;;8.30;99.90;;;;;;5041237;28;20044;-68
2022/04/25 04:46:38;;;;;;;13.55;6.13;;;8.30;99.90;;;;;;5039380;28;20040;-68
2022/04/25 04:49:04;;;;;;;11.67;6.17;;;8.30;99.90;;;;;;5061455;28;20386;-69
2022/04/25 04:51:29;;;;;;;9.90;5.63;;;8.40;99.90;;;;;;5055167;28;20484;-68
2022/04/25 04:53:55;;;;;;;10.00;5.17;;;8.40;99.90;;;;;;5052650;28;20037;-68
2022/04/25 04:56:20;;;;;;;8.47;5.27;;;8.30;99.90;;;;;;5055240;28;20040;-68
2022/04/25 04:58:46;;;;;;;14.93;5.77;;;8.30;99.90;;;;;;5041809;28;20545;-69
2022/04/25 05:01:12;;;;;;;13.80;6.13;;;8.30;99.90;;;;;;5053598;28;20036;-68
2022/04/25 05:03:41;;;;;;;9.67;5.50;;;8.30;99.90;;;;;;5021074;28;20309;-68
2022/04/25 05:06:09;;;;;;;10.60;5.78;;;8.30;99.90;;;;;;5031871;28;20039;-68
2022/04/25 05:08:35;;;;;;;11.75;5.88;;;8.30;99.90;;;;;;5056051;28;20489;-68
2022/04/25 05:11:00;;;;;;;12.33;5.20;;;8.30;99.90;;;;;;5057805;28;20098;-68
2022/04/25 05:13:26;;;;;;;12.07;5.73;;;8.30;99.90;;;;;;5049752;28;20052;-69
2022/04/25 05:15:52;;;;;;;12.57;6.93;;;8.30;99.90;;;;;;5033334;28;20094;-69
2022/04/25 05:18:19;;;;;;;12.57;5.93;;;8.30;99.90;;;;;;5060103;28;20050;-68
2022/04/25 05:20:45;;;;;;;14.23;7.28;;;8.30;99.90;;;;;;5055223;28;20052;-68
2022/04/25 05:23:10;;;;;;;11.53;6.53;;;8.30;99.90;;;;;;5042968;28;20044;-68
2022/04/25 05:25:38;;;;;;;9.40;5.30;;;8.30;99.90;;;;;;5044561;28;20094;-68
2022/04/25 05:28:05;;;;;;;10.25;5.55;;;8.30;99.90;;;;;;5050695;28;20029;-66
2022/04/25 05:30:32;;;;;;;11.32;5.85;;;8.30;99.90;;;;;;5033170;28;20119;-67
2022/04/25 05:32:58;;;;;;;14.55;6.10;;;8.30;99.90;;;;;;5053438;28;20119;-67
2022/04/25 05:35:25;;;;;;;;;;;8.30;99.90;;;;;;5038892;28;20046;-66
2022/04/25 05:37:51;;;;;;;10.27;5.97;;;8.30;99.90;;;;;;5053501;28;19952;-66
2022/04/25 05:40:17;;;;;;;12.03;6.67;;;8.20;99.90;;;;;;5041993;28;20068;-67
2022/04/25 05:42:44;;;;;;;11.98;6.45;;;8.30;99.90;;;;;;5065604;28;20820;-66
2022/04/25 05:45:12;;;;;;;14.52;6.53;;;8.30;99.90;;;;;;5048904;28;20515;-69
2022/04/25 05:47:38;;;;;;;13.43;6.43;;;8.30;99.90;;;;;;5054606;28;20064;-71
2022/04/25 05:52:50;;;;;;;10.65;6.28;;;8.40;99.90;;;;;;5061930;28;20060;-70
2022/04/25 05:55:15;;;;;;;15.63;6.87;;;8.40;99.90;;;;;;5033361;28;20133;-66
2022/04/25 05:57:41;;;;;;;10.33;5.93;;;8.40;99.90;;;;;;5057684;28;20032;-67
2022/04/25 06:00:11;;;;;;;14.70;6.17;;;8.40;99.90;;;;;;5060099;28;20033;-66
2022/04/25 06:02:38;;;;;;;16.52;6.72;;;8.40;99.90;;;;;;5061930;28;20099;-67
2022/04/25 06:05:09;;;;;;;14.95;5.90;;;8.40;99.90;;;;;;5042384;28;20044;-67
2022/04/25 06:07:36;;;;;;;15.63;6.57;;;8.40;99.90;;;;;;5063710;28;20029;-67
2022/04/25 06:10:03;;;;;;;12.32;6.57;;;8.40;99.90;;;;;;5054794;28;20040;-66
2022/04/25 06:12:31;;;;;;;11.90;6.60;;;8.40;99.90;;;;;;5040255;28;20306;-67
2022/04/25 06:14:58;;;;;;;10.90;6.03;;;8.40;99.90;;;;;;5060599;28;20028;-66
2022/04/25 06:17:23;;;;;;;13.95;6.55;;;8.40;99.90;;;;;;5047306;28;20115;-66
2022/04/25 06:19:49;;;;;;;15.37;6.70;;;8.40;99.90;;;;;;5065190;28;20040;-67
2022/04/25 06:22:17;;;;;;;12.93;6.70;;;8.40;99.90;;;;;;5043977;28;22266;-67
2022/04/25 06:24:43;;;;;;;13.50;6.13;;;8.40;99.90;;;;;;5053205;28;20036;-67
2022/04/25 06:27:09;;;;;;;13.40;7.43;;;8.40;99.90;;;;;;5041029;28;20041;-66
2022/04/25 06:29:35;;;;;;;11.65;6.53;;;8.40;99.90;;;;;;5065117;28;20125;-67
2022/04/25 06:32:05;;;;;;;12.10;6.40;;;8.40;99.90;;;;;;5066217;28;20400;-66
2022/04/25 06:34:32;;;;;;;13.00;6.20;;;8.40;99.90;;;;;;5063749;28;20040;-67
2022/04/25 06:36:57;;;;;;;;;;;8.40;99.90;;;;;;5053318;28;20037;-66
2022/04/25 06:39:23;;;;;;;10.57;5.60;;;8.40;99.90;;;;;;5059419;28;19939;-66
2022/04/25 06:41:48;;;;;;;11.53;5.63;;;8.40;99.90;;;;;;5059690;28;20052;-66
2022/04/25 06:44:14;;;;;;;11.80;6.43;;;8.50;99.90;;;;;;5068814;28;20506;-67
2022/04/25 06:46:39;;;;;;;11.17;6.90;;;8.60;99.90;;;;;;5060902;28;20063;-67
2022/04/25 06:49:20;;;;;;;13.27;5.87;;;8.70;99.90;;;;;;5068532;28;20037;-67
2022/04/25 06:51:47;;;;;;;10.88;6.53;;;8.70;99.90;;;;;;5046637;28;20043;-67
2022/04/25 06:54:13;;;;;;;;;;;8.70;99.90;;;;;;5042187;28;20555;-66
2022/04/25 06:56:40;;;;;;;14.38;6.18;;;8.70;99.90;;;;;;5049354;28;19924;-67
2022/04/25 06:59:05;;;;;;;12.75;5.88;;;8.70;99.90;;;;;;5057403;28;20055;-67
2022/04/25 07:01:32;;;;;;;11.70;6.10;;;8.80;99.90;;;;;;5062721;28;20028;-67
2022/04/25 07:03:58;;;;;;;10.35;5.63;;;8.80;99.90;;;;;;5057519;28;20298;-67
2022/04/25 07:06:24;;;;;;;18.30;6.32;;;8.80;99.90;;;;;;5059872;28;20040;-67
2022/04/25 07:08:50;;;;;;;13.10;6.07;;;8.80;99.90;;;;;;5062469;28;20052;-67
2022/04/25 07:11:15;;;;;;;14.33;6.30;;;8.90;99.90;;;;;;5059355;28;20076;-66
2022/04/25 07:13:42;;;;;;;14.03;6.50;;;8.90;99.90;;;;;;5063803;28;20493;-67
2022/04/25 07:16:09;;;;;;;12.48;6.25;;;9.00;99.90;;;;;;5045991;28;20037;-66
2022/04/25 07:18:35;;;;;;;12.70;6.38;;;9.00;99.90;;;;;;5063673;28;20032;-67
2022/04/25 07:28:48;;;;;;;14.50;5.68;;;9.00;99.90;;;;;;5054431;28;20048;-67
2022/04/25 07:29:14;;;;;;;11.55;5.63;;;9.00;99.90;;;;;;5050911;28;20052;-67
2022/04/25 07:31:39;;;;;;;9.33;5.13;;;9.00;99.90;;;;;;5058360;28;20047;-67
2022/04/25 07:34:05;;;;;;;11.70;6.07;;;9.00;99.90;;;;;;5054382;28;20115;-67
2022/04/25 07:36:30;;;;;;;12.77;5.77;;;9.10;99.90;;;;;;5022929;28;20183;-67
2022/04/25 07:38:56;;;;;;;11.77;5.33;;;9.10;99.90;;;;;;5043620;28;20040;-66
2022/04/25 07:41:22;;;;;;;10.70;6.00;;;9.10;99.90;;;;;;5060242;28;20430;-67
2022/04/25 07:43:48;;;;;;;13.23;6.10;;;9.10;99.90;;;;;;5059688;28;20049;-66
2022/04/25 07:46:16;;;;;;;12.65;5.90;;;9.20;99.90;;;;;;5057586;28;20045;-67
2022/04/25 07:48:42;;;;;;;10.48;5.35;;;9.10;99.90;;;;;;5052762;28;20116;-66
2022/04/25 07:51:08;;;;;;;12.65;5.88;;;9.10;99.90;;;;;;5055309;28;20211;-66
2022/04/25 07:53:33;;;;;;;13.27;7.10;;;9.20;99.90;;;;;;5059724;28;20048;-66
2022/04/25 07:55:59;;;;;;;12.83;6.57;;;9.20;99.90;;;;;;5052941;28;20500;-66
2022/04/25 07:58:25;;;;;;;12.63;7.17;;;9.20;99.90;;;;;;5042200;28;20047;-66
2022/04/25 08:00:50;;;;;;;9.20;5.87;;;9.20;99.90;;;;;;5054285;28;20570;-67
2022/04/25 08:03:16;;;;;;;10.27;5.90;;;9.10;99.90;;;;;;5055466;28;20037;-67
2022/04/25 08:05:42;;;;;;;13.37;5.93;;;9.20;99.90;;;;;;5030920;28;20063;-67
2022/04/25 08:08:09;;;;;;;10.68;6.28;;;9.20;99.90;;;;;;5056321;28;20090;-67
2022/04/25 08:10:34;;;;;;;12.02;6.07;;;9.20;99.90;;;;;;5058660;28;20032;-66
2022/04/25 08:18:14;;;;;;;11.52;5.78;;;9.20;99.90;;;;;;5047943;28;20234;-68
2022/04/25 08:20:40;;;;;;;11.17;5.77;;;9.30;99.90;;;;;;5065037;28;20099;-68
2022/04/25 08:23:11;;;;;;;11.85;4.97;;;9.30;99.90;;;;;;5047156;28;20029;-69
2022/04/25 08:25:41;;;;;;;16.75;5.35;;;9.30;99.90;;;;;;5050206;28;20105;-70
2022/04/25 08:28:08;;;;;;;13.80;6.07;;;9.40;99.90;;;;;;5020621;28;20041;-70
2022/04/25 08:30:34;;;;;;;9.55;5.05;;;9.50;99.90;;;;;;5057707;28;20052;-69
2022/04/25 08:33:00;;;;;;;10.57;4.55;;;9.50;99.90;;;;;;5032034;28;20048;-69
2022/04/25 08:35:27;;;;;;;8.68;5.35;;;9.50;99.90;;;;;;5052271;28;20040;-69
2022/04/25 08:37:54;;;;;;;9.35;4.80;;;9.50;99.90;;;;;;5051784;28;20068;-69
2022/04/25 08:40:20;;;;;;;10.05;4.53;;;9.50;99.90;;;;;;5040297;28;20419;-69
2022/04/25 08:42:46;;;;;;;13.35;5.05;;;9.50;99.90;;;;;;5038620;28;20622;-68
2022/04/25 08:45:13;;;;;;;10.00;4.53;;;9.60;99.90;;;;;;5054326;28;20050;-69
2022/04/25 08:47:53;;;;;;;11.55;4.82;;;9.60;99.90;;;;;;5056273;28;20385;-69
2022/04/25 08:50:20;;;;;;;8.52;4.68;;;9.60;99.90;;;;;;5037456;28;20125;-69
2022/04/25 08:52:46;;;;;;;6.25;4.38;;;9.70;99.90;;;;;;5058975;28;20059;-69
2022/04/25 08:55:13;;;;;;;8.48;4.05;;;9.70;99.90;;;;;;5046767;28;20119;-69
2022/04/25 08:57:40;;;;;;;8.93;3.90;;;9.70;99.90;;;;;;5036403;28;20079;-70
2022/04/25 09:00:07;;;;;;;10.25;4.20;;;9.70;99.90;;;;;;5052198;28;20099;-69
2022/04/25 09:02:34;;;;;;;10.70;4.22;;;9.70;99.90;;;;;;5029406;28;20246;-70
2022/04/25 09:05:00;;;;;;;6.20;4.32;;;9.80;99.90;;;;;;5037397;28;20076;-70
2022/04/25 09:07:26;;;;;;;8.73;3.97;;;9.90;99.90;;;;;;5035300;28;20068;-68
2022/04/25 09:09:52;;;;;;;7.90;3.60;;;9.90;99.90;;;;;;5053985;28;20033;-70
2022/04/25 09:12:18;;;;;;;8.95;4.03;;;10.00;99.90;;;;;;5044575;28;20552;-69
2022/04/25 09:14:45;;;;;;;9.73;4.50;;;10.10;99.90;;;;;;5051324;28;20052;-70
2022/04/25 09:17:11;;;;;;;6.68;4.07;;;10.10;99.90;;;;;;5050667;28;20097;-72
2022/04/25 09:19:38;;;;;;;7.72;3.90;;;10.10;99.90;;;;;;5041918;28;20352;-69
2022/04/25 09:22:06;;;;;;;9.98;4.15;;;10.10;99.90;;;;;;5049609;28;20047;-69
2022/04/25 09:24:44;;;;;;;10.73;4.00;;;10.10;99.90;;;;;;5051859;28;20544;-70
2022/04/25 09:27:18;;;;;;;7.35;3.58;;;10.10;99.90;;;;;;5047708;28;20574;-69
2022/04/25 09:29:46;;;;;;;10.30;3.72;;;10.20;99.90;;;;;;5060801;28;20162;-69
2022/04/25 09:32:13;;;;;;;8.82;4.20;;;10.20;99.90;;;;;;5019234;28;20489;-71
2022/04/25 09:37:47;;;;;;;8.68;4.28;;;10.30;99.90;;;;;;5053462;28;20131;-68
2022/04/25 09:40:18;;;;;;;6.47;3.53;;;10.40;99.90;;;;;;5063960;28;20052;-69
2022/04/25 09:42:46;;;;;;;9.68;4.00;;;10.40;99.90;;;;;;5062578;28;20492;-69
2022/04/25 09:45:11;;;;;;;8.07;3.78;;;10.40;99.90;;;;;;5059453;28;20037;-68
2022/04/25 09:47:38;;;;;;;9.75;3.50;;;10.40;99.90;;;;;;5042918;28;20051;-69
2022/04/25 09:50:05;;;;;;;5.70;2.85;;;10.30;99.90;;;;;;5067413;28;20036;-70
2022/04/25 09:52:55;;;;;;;8.18;3.15;;;10.30;99.90;;;;;;5060626;28;20048;-68
2022/04/25 09:55:22;;;;;;;9.35;3.92;;;10.30;99.90;;;;;;5043138;28;20080;-70
2022/04/25 09:57:50;;;;;;;7.80;3.55;;;10.30;99.90;;;;;;5042084;28;21562;-70
2022/04/25 10:00:32;;;;;;;4.72;3.05;;;10.30;99.90;;;;;;5058264;28;20125;-69
2022/04/25 10:02:58;;;;;;;8.57;3.28;;;10.30;99.90;;;;;;5056779;28;20093;-69
2022/04/25 10:05:47;;;;;;;8.50;3.70;;;10.30;99.90;;;;;;5056543;28;20037;-70
2022/04/25 10:08:15;;;;;;;7.80;3.38;;;10.30;99.90;;;;;;5057658;28;20040;-69
2022/04/25 10:10:53;;;;;;;7.60;3.30;;;10.30;99.90;;;;;;5058601;28;20036;-68
2022/04/25 10:13:19;;;;;;;5.88;3.15;;;10.40;99.90;;;;;;5025921;28;20052;-68
2022/04/25 10:15:46;;;;;;;8.35;4.05;;;10.40;99.90;;;;;;5058925;28;20468;-69
2022/04/25 10:18:13;;;;;;;6.78;3.33;;;10.40;99.90;;;;;;5059077;28;20040;-68
2022/04/25 10:20:40;;;;;;;9.27;3.42;;;10.50;99.90;;;;;;5060943;28;20488;-69
2022/04/25 10:23:09;;;;;;;7.85;3.80;;;10.60;99.90;;;;;;5060195;28;20040;-68
2022/04/25 10:25:36;;;;;;;11.93;3.70;;;10.60;99.90;;;;;;5046447;28;20060;-68
2022/04/25 10:28:06;;;;;;;8.00;3.05;;;10.70;99.90;;;;;;5044743;28;20662;-69
2022/04/25 10:30:36;;;;;;;6.95;3.20;;;10.90;99.90;;;;;;5056520;28;20048;-69
2022/04/25 10:33:17;;;;;;;8.60;3.22;;;11.00;99.90;;;;;;5044203;28;20091;-69
2022/04/25 10:35:45;;;;;;;6.65;2.70;;;11.10;99.90;;;;;;5021898;28;20349;-68
2022/04/25 10:38:47;;;;;;;8.82;2.97;;;11.20;99.90;;;;;;5047382;28;20072;-68
2022/04/25 10:44:17;;;;;;;10.05;2.85;;;11.50;99.90;;;;;;5060850;28;20076;-68
2022/04/25 10:47:04;;;;;;;9.13;2.90;;;11.60;99.90;;;;;;5057646;28;20091;-70
2022/04/25 10:49:34;;;;;;;6.05;2.97;;;11.80;99.90;;;;;;5055263;28;20048;-70
2022/04/25 10:52:01;;;;;;;7.85;3.10;;;11.90;99.90;;;;;;5053536;28;20474;-69
2022/04/25 10:54:30;;;;;;;6.20;3.05;;;12.00;99.90;;;;;;5042429;28;20493;-69
2022/04/25 10:57:07;;;;;;;4.38;2.88;;;12.10;99.90;;;;;;5049855;28;20400;-70
2022/04/25 10:59:33;;;;;;;4.97;2.97;;;12.20;99.90;;;;;;5058418;28;20510;-70
2022/04/25 11:01:59;;;;;;;7.63;3.05;;;12.30;99.90;;;;;;5057327;28;20045;-69
2022/04/25 11:04:25;;;;;;;8.13;2.60;;;12.30;99.90;;;;;;5060338;28;20107;-68
2022/04/25 11:07:21;;;;;;;6.50;2.95;;;12.40;99.90;;;;;;5039032;28;20283;-68
2022/04/25 11:09:47;;;;;;;6.53;3.47;;;12.40;99.90;;;;;;5054652;28;20424;-67
2022/04/25 11:12:12;;;;;;;9.90;3.00;;;12.40;99.90;;;;;;5057057;28;20059;-67
2022/04/25 11:15:00;;;;;;;5.47;2.37;;;12.40;99.90;;;;;;5061626;28;20059;-68
2022/04/25 11:17:26;;;;;;;5.68;2.75;;;12.40;99.90;;;;;;5052329;28;20154;-67
2022/04/25 11:19:54;;;;;;;8.48;3.15;;;12.50;99.90;;;;;;5038119;28;20041;-69
2022/04/25 11:22:41;;;;;;;6.55;3.00;;;12.50;99.90;;;;;;5058047;28;20052;-68
2022/04/25 11:25:25;;;;;;;6.93;2.95;;;12.50;99.90;;;;;;5060451;28;20193;-67
2022/04/25 11:28:04;;;;;;;5.72;2.72;;;12.60;99.90;;;;;;5062781;28;20053;-67
2022/04/25 11:30:31;;;;;;;6.85;3.17;;;12.60;99.90;;;;;;5045161;28;20484;-68
2022/04/25 11:33:01;;;;;;;;;;;12.70;99.90;;;;;;5066723;28;20280;-68
2022/04/25 11:35:27;;;;;;;8.27;3.17;;;12.70;99.90;;;;;;5058595;28;19923;-68
2022/04/25 11:37:56;;;;;;;5.60;2.65;;;12.80;99.90;;;;;;5061920;28;20044;-68
2022/04/25 11:40:23;;;;;;;6.38;3.33;;;12.80;99.90;;;;;;5065362;28;20044;-68
2022/04/25 11:42:48;;;;;;;8.98;3.60;;;12.90;99.90;;;;;;5064634;28;20041;-67
2022/04/25 11:45:14;;;;;;;5.63;3.23;;;13.00;99.90;;;;;;5065108;28;20052;-67
2022/04/25 11:47:40;;;;;;;8.13;3.27;;;13.10;99.90;;;;;;5063936;28;20068;-67
2022/04/25 11:50:07;;;;;;;7.05;3.58;;;13.10;99.90;;;;;;5047985;28;20040;-67
2022/04/25 11:52:33;;;;;;;6.85;3.35;;;13.20;99.90;;;;;;5066076;28;20036;-68
2022/04/25 11:54:59;;;;;;;6.63;3.20;;;13.20;99.90;;;;;;5051041;28;20119;-67
2022/04/25 11:57:26;;;;;;;4.95;2.53;;;13.30;99.90;;;;;;5062521;28;20630;-68
2022/04/25 12:00:12;;;;;;;9.75;3.10;;;13.40;99.90;;;;;;5059743;28;20500;-67
2022/04/25 12:02:38;;;;;;;8.05;3.20;;;13.40;99.90;;;;;;5059198;28;20036;-68
2022/04/25 12:05:07;;;;;;;8.57;2.95;;;13.40;99.90;;;;;;5065786;28;20039;-67
2022/04/25 12:07:36;;;;;;;8.50;3.20;;;13.50;99.90;;;;;;5059885;28;20068;-68
2022/04/25 12:15:40;;;;;;;8.48;3.15;;;13.60;99.90;;;;;;5052216;28;20045;-68
2022/04/25 12:18:20;;;;;;;8.45;3.05;;;13.50;99.90;;;;;;5058771;28;20044;-68
2022/04/25 12:20:51;;;;;;;8.30;3.08;;;13.40;99.90;;;;;;5059517;28;20090;-68
2022/04/25 12:23:22;;;;;;;8.15;3.30;;;13.40;99.90;;;;;;5049480;28;20105;-68
2022/04/25 12:25:48;;;;;;;9.48;2.63;;;13.30;99.90;;;;;;5034287;28;20239;-67
2022/04/25 12:28:13;;;;;;;6.97;3.08;;;13.20;99.90;;;;;;5046065;28;20040;-67
2022/04/25 12:30:54;;;;;;;11.00;3.17;;;13.20;99.90;;;;;;5061716;28;20472;-67
2022/04/25 12:33:30;;;;;;;9.88;3.67;;;13.20;99.90;;;;;;5044952;28;20072;-67
2022/04/25 12:36:08;;;;;;;7.05;3.28;;;13.10;99.90;;;;;;5052174;28;20036;-67
2022/04/25 12:38:44;;;;;;;7.05;3.78;;;13.00;99.90;;;;;;5062297;28;20044;-67
2022/04/25 12:41:23;;;;;;;9.30;3.20;;;13.00;99.90;;;;;;5065737;28;20441;-67
2022/04/25 12:43:50;;;;;;;9.98;3.17;;;13.00;99.90;;;;;;5054133;28;20067;-68
2022/04/25 12:46:18;;;;;;;10.77;2.97;;;12.90;99.90;;;;;;5062178;28;20041;-67
2022/04/25 12:49:04;;;;;;;10.57;3.80;;;12.90;99.90;;;;;;5054124;28;20106;-67
2022/04/25 12:51:38;;;;;;;6.45;3.15;;;12.90;99.90;;;;;;5042007;28;20076;-68
2022/04/25 12:54:22;;;;;;;7.95;3.92;;;12.90;99.90;;;;;;5044192;28;20139;-68
2022/04/25 12:56:50;;;;;;;4.97;2.83;;;12.80;99.90;;;;;;5021092;28;20063;-67
2022/04/25 12:59:29;;;;;;;8.77;2.92;;;12.80;99.90;;;;;;5043438;28;20123;-68
2022/04/25 13:02:00;;;;;;;7.20;2.88;;;12.80;99.90;;;;;;5059566;28;20460;-67
2022/04/25 13:04:26;;;;;;;6.03;2.90;;;12.80;99.90;;;;;;5041306;28;20075;-67
2022/04/25 13:06:52;;;;;;;9.10;3.78;;;12.80;99.90;;;;;;5042084;28;20046;-68
2022/04/25 13:09:17;;;;;;;4.68;2.88;;;12.80;99.90;;;;;;5062558;28;20144;-67
2022/04/25 13:11:44;;;;;;;9.13;3.60;;;12.70;99.90;;;;;;5061225;28;20497;-67
2022/04/25 13:14:10;;;;;;;8.23;3.15;;;12.70;99.90;;;;;;5054809;28;20137;-67
2022/04/25 13:16:35;;;;;;;6.85;3.13;;;12.70;99.90;;;;;;5062447;28;20476;-67
2022/04/25 13:19:01;;;;;;;6.23;2.87;;;12.70;99.90;;;;;;5036992;28;20427;-68
2022/04/25 13:21:27;;;;;;;10.70;3.83;;;12.70;99.90;;;;;;5054787;28;20375;-68
2022/04/25 13:23:53;;;;;;;5.40;3.28;;;12.60;99.90;;;;;;5058821;28;20119;-68
2022/04/25 13:26:19;;;;;;;8.65;4.05;;;12.60;99.90;;;;;;5060709;28;20040;-68